sensor_id;sensor_type;location;lat;lon;timestamp;temperature;humidity
14908;DHT22;7545;52.092;7.006;2022-12-29T00:01:51;10.10;99.90
14908;DHT22;7545;52.092;7.006;2022-12-29T00:04:18;10.10;99.90
14908;DHT22;7545;52.092;7.006;2022-12-29T00:06:44;10.10;99.90
14908;DHT22;7545;52.092;7.006;2022-12-29T00:09:13;10.20;99.90
14908;DHT22;7545;52.092;7.006;2022-12-29T00:11:39;10.20;99.90
14908;DHT22;7545;52.092;7.006;2022-12-29T00:14:05;10.20;99.90
14908;DHT22;7545;52.092;7.006;2022-12-29T00:16:51;10.20;99.90
14908;DHT22;7545;52.092;7.006;2022-12-29T00:19:16;10.20;99.90
14908;DHT22;7545;52.092;7.006;2022-12-29T00:22:00;10.20;99.90
14908;DHT22;7545;52.092;7.006;2022-12-29T00:24:45;10.20;99.90
14908;DHT22;7545;52.092;7.006;2022-12-29T00:27:29;10.30;99.90
14908;DHT22;7545;52.092;7.006;2022-12-29T00:30:15;10.20;99.90
14908;DHT22;7545;52.092;7.006;2022-12-29T00:33:00;10.30;99.90
14908;DHT22;7545;52.092;7.006;2022-12-29T00:35:51;10.30;99.90
14908;DHT22;7545;52.092;7.006;2022-12-29T00:38:18;10.30;99.90
14908;DHT22;7545;52.092;7.006;2022-12-29T00:41:02;10.30;99.90
14908;DHT22;7545;52.092;7.006;2022-12-29T00:43:46;10.30;99.90
14908;DHT22;7545;52.092;7.006;2022-12-29T00:46:31;10.40;99.90
14908;DHT22;7545;52.092;7.006;2022-12-29T00:48:57;10.30;99.90
14908;DHT22;7545;52.092;7.006;2022-12-29T00:51:41;10.30;99.90
14908;DHT22;7545;52.092;7.006;2022-12-29T00:54:07;10.30;99.90
14908;DHT22;7545;52.092;7.006;2022-12-29T00:56:33;10.30;99.90
14908;DHT22;7545;52.092;7.006;2022-12-29T00:59:04;10.40;99.90
14908;DHT22;7545;52.092;7.006;2022-12-29T01:01:29;10.30;99.90
14908;DHT22;7545;52.092;7.006;2022-12-29T01:03:55;10.30;99.90
14908;DHT22;7545;52.092;7.006;2022-12-29T01:06:21;10.30;99.90
14908;DHT22;7545;52.092;7.006;2022-12-29T01:08:47;10.40;99.90
14908;DHT22;7545;52.092;7.006;2022-12-29T01:11:33;10.40;99.90
14908;DHT22;7545;52.092;7.006;2022-12-29T01:13:58;10.40;99.90
14908;DHT22;7545;52.092;7.006;2022-12-29T01:16:24;10.40;99.90
14908;DHT22;7545;52.092;7.006;2022-12-29T01:18:50;10.30;99.90
14908;DHT22;7545;52.092;7.006;2022-12-29T01:21:15;10.40;99.90
14908;DHT22;7545;52.092;7.006;2022-12-29T01:23:41;10.30;99.90
14908;DHT22;7545;52.092;7.006;2022-12-29T01:26:11;10.40;99.90
14908;DHT22;7545;52.092;7.006;2022-12-29T01:28:37;10.40;99.90
14908;DHT22;7545;52.092;7.006;2022-12-29T01:31:05;10.40;99.90
14908;DHT22;7545;52.092;7.006;2022-12-29T01:33:31;10.30;99.90
14908;DHT22;7545;52.092;7.006;2022-12-29T01:36:16;10.40;99.90
14908;DHT22;7545;52.092;7.006;2022-12-29T01:38:42;10.40;99.90
14908;DHT22;7545;52.092;7.006;2022-12-29T01:41:10;10.30;99.90
14908;DHT22;7545;52.092;7.006;2022-12-29T01:48:52;10.30;99.90
14908;DHT22;7545;52.092;7.006;2022-12-29T01:51:21;10.20;99.90
14908;DHT22;7545;52.092;7.006;2022-12-29T01:53:47;10.20;99.90
14908;DHT22;7545;52.092;7.006;2022-12-29T01:56:15;10.30;99.90
14908;DHT22;7545;52.092;7.006;2022-12-29T01:58:44;10.30;99.90
14908;DHT22;7545;52.092;7.006;2022-12-29T02:01:11;10.30;99.90
14908;DHT22;7545;52.092;7.006;2022-12-29T02:03:37;10.30;99.90
14908;DHT22;7545;52.092;7.006;2022-12-29T02:06:14;10.30;99.90
14908;DHT22;7545;52.092;7.006;2022-12-29T02:08:40;10.30;99.90
14908;DHT22;7545;52.092;7.006;2022-12-29T02:11:07;10.30;99.90
14908;DHT22;7545;52.092;7.006;2022-12-29T02:13:32;10.30;99.90
14908;DHT22;7545;52.092;7.006;2022-12-29T02:18:32;10.30;99.90
14908;DHT22;7545;52.092;7.006;2022-12-29T02:26:44;10.30;99.90
14908;DHT22;7545;52.092;7.006;2022-12-29T02:32:05;10.30;99.90
14908;DHT22;7545;52.092;7.006;2022-12-29T02:37:24;10.40;99.90
14908;DHT22;7545;52.092;7.006;2022-12-29T02:50:40;10.40;99.90
14908;DHT22;7545;52.092;7.006;2022-12-29T02:53:11;10.40;99.90
14908;DHT22;7545;52.092;7.006;2022-12-29T02:55:38;10.40;99.90
14908;DHT22;7545;52.092;7.006;2022-12-29T02:58:18;10.40;99.90
14908;DHT22;7545;52.092;7.006;2022-12-29T03:01:11;10.40;99.90
14908;DHT22;7545;52.092;7.006;2022-12-29T03:06:22;10.40;99.90
14908;DHT22;7545;52.092;7.006;2022-12-29T03:14:44;10.40;99.90
14908;DHT22;7545;52.092;7.006;2022-12-29T03:17:44;10.40;99.90
14908;DHT22;7545;52.092;7.006;2022-12-29T03:20:17;10.50;99.90
14908;DHT22;7545;52.092;7.006;2022-12-29T03:22:47;10.50;99.90
14908;DHT22;7545;52.092;7.006;2022-12-29T03:25:33;10.50;99.90
14908;DHT22;7545;52.092;7.006;2022-12-29T03:28:11;10.50;99.90
14908;DHT22;7545;52.092;7.006;2022-12-29T03:30:38;10.50;99.90
14908;DHT22;7545;52.092;7.006;2022-12-29T03:33:10;10.50;99.90
14908;DHT22;7545;52.092;7.006;2022-12-29T03:35:40;10.60;99.90
14908;DHT22;7545;52.092;7.006;2022-12-29T03:40:38;10.60;99.90
14908;DHT22;7545;52.092;7.006;2022-12-29T03:43:05;10.60;99.90
14908;DHT22;7545;52.092;7.006;2022-12-29T03:45:31;10.60;99.90
14908;DHT22;7545;52.092;7.006;2022-12-29T03:47:56;10.70;99.90
14908;DHT22;7545;52.092;7.006;2022-12-29T03:50:22;10.70;99.90
14908;DHT22;7545;52.092;7.006;2022-12-29T03:52:47;10.70;99.90
14908;DHT22;7545;52.092;7.006;2022-12-29T03:55:13;10.70;99.90
14908;DHT22;7545;52.092;7.006;2022-12-29T03:57:39;10.70;99.90
14908;DHT22;7545;52.092;7.006;2022-12-29T04:00:06;10.70;99.90
14908;DHT22;7545;52.092;7.006;2022-12-29T04:02:31;10.70;99.90
14908;DHT22;7545;52.092;7.006;2022-12-29T04:04:57;10.70;99.90
14908;DHT22;7545;52.092;7.006;2022-12-29T04:07:22;10.70;99.90
14908;DHT22;7545;52.092;7.006;2022-12-29T04:09:48;10.70;99.90
14908;DHT22;7545;52.092;7.006;2022-12-29T04:12:14;10.70;99.90
14908;DHT22;7545;52.092;7.006;2022-12-29T04:14:40;10.80;99.90
14908;DHT22;7545;52.092;7.006;2022-12-29T04:17:06;10.70;99.90
14908;DHT22;7545;52.092;7.006;2022-12-29T04:19:31;10.80;99.90
14908;DHT22;7545;52.092;7.006;2022-12-29T04:21:57;10.80;99.90
14908;DHT22;7545;52.092;7.006;2022-12-29T04:24:23;10.80;99.90
14908;DHT22;7545;52.092;7.006;2022-12-29T04:26:49;10.80;99.90
14908;DHT22;7545;52.092;7.006;2022-12-29T04:29:14;10.70;99.90
14908;DHT22;7545;52.092;7.006;2022-12-29T04:31:40;10.80;99.90
14908;DHT22;7545;52.092;7.006;2022-12-29T04:34:05;10.80;99.90
14908;DHT22;7545;52.092;7.006;2022-12-29T04:36:31;10.70;99.90
14908;DHT22;7545;52.092;7.006;2022-12-29T04:38:57;10.80;99.90
14908;DHT22;7545;52.092;7.006;2022-12-29T04:41:23;10.70;99.90
14908;DHT22;7545;52.092;7.006;2022-12-29T04:43:49;10.70;99.90
14908;DHT22;7545;52.092;7.006;2022-12-29T04:46:14;10.70;99.90
14908;DHT22;7545;52.092;7.006;2022-12-29T04:48:40;10.70;99.90
14908;DHT22;7545;52.092;7.006;2022-12-29T04:51:05;10.70;99.90
14908;DHT22;7545;52.092;7.006;2022-12-29T04:53:31;10.70;99.90
14908;DHT22;7545;52.092;7.006;2022-12-29T04:55:56;10.60;99.90
14908;DHT22;7545;52.092;7.006;2022-12-29T04:58:22;10.60;99.90
14908;DHT22;7545;52.092;7.006;2022-12-29T05:00:48;10.60;99.90
14908;DHT22;7545;52.092;7.006;2022-12-29T05:03:13;10.60;99.90
14908;DHT22;7545;52.092;7.006;2022-12-29T05:05:39;10.50;99.90
14908;DHT22;7545;52.092;7.006;2022-12-29T05:08:04;10.50;99.90
14908;DHT22;7545;52.092;7.006;2022-12-29T05:10:30;10.50;99.90
14908;DHT22;7545;52.092;7.006;2022-12-29T05:12:56;10.50;99.90
14908;DHT22;7545;52.092;7.006;2022-12-29T05:15:22;10.50;99.90
14908;DHT22;7545;52.092;7.006;2022-12-29T05:17:48;10.50;99.90
14908;DHT22;7545;52.092;7.006;2022-12-29T05:20:13;10.40;99.90
14908;DHT22;7545;52.092;7.006;2022-12-29T05:22:39;10.40;99.90
14908;DHT22;7545;52.092;7.006;2022-12-29T05:25:05;10.40;99.90
14908;DHT22;7545;52.092;7.006;2022-12-29T05:27:32;10.40;99.90
14908;DHT22;7545;52.092;7.006;2022-12-29T05:29:58;10.40;99.90
14908;DHT22;7545;52.092;7.006;2022-12-29T05:32:23;10.40;99.90
14908;DHT22;7545;52.092;7.006;2022-12-29T05:34:49;10.40;99.90
14908;DHT22;7545;52.092;7.006;2022-12-29T05:37:15;10.30;99.90
14908;DHT22;7545;52.092;7.006;2022-12-29T05:39:40;10.30;99.90
14908;DHT22;7545;52.092;7.006;2022-12-29T05:42:06;10.30;99.90
14908;DHT22;7545;52.092;7.006;2022-12-29T05:44:31;10.30;99.90
14908;DHT22;7545;52.092;7.006;2022-12-29T05:46:57;10.30;99.90
14908;DHT22;7545;52.092;7.006;2022-12-29T05:49:23;10.20;99.90
14908;DHT22;7545;52.092;7.006;2022-12-29T05:51:48;10.30;99.90
14908;DHT22;7545;52.092;7.006;2022-12-29T05:54:14;10.20;99.90
14908;DHT22;7545;52.092;7.006;2022-12-29T05:56:39;10.20;99.90
14908;DHT22;7545;52.092;7.006;2022-12-29T05:59:05;10.30;99.90
14908;DHT22;7545;52.092;7.006;2022-12-29T06:01:31;10.20;99.90
14908;DHT22;7545;52.092;7.006;2022-12-29T06:03:56;10.20;99.90
14908;DHT22;7545;52.092;7.006;2022-12-29T06:06:22;10.20;99.90
14908;DHT22;7545;52.092;7.006;2022-12-29T06:08:47;10.20;99.90
14908;DHT22;7545;52.092;7.006;2022-12-29T06:11:13;10.20;99.90
14908;DHT22;7545;52.092;7.006;2022-12-29T06:13:39;10.20;99.90
14908;DHT22;7545;52.092;7.006;2022-12-29T06:16:04;10.10;99.90
14908;DHT22;7545;52.092;7.006;2022-12-29T06:18:30;10.20;99.90
14908;DHT22;7545;52.092;7.006;2022-12-29T06:21:03;10.20;99.90
14908;DHT22;7545;52.092;7.006;2022-12-29T06:23:29;10.20;99.90
14908;DHT22;7545;52.092;7.006;2022-12-29T06:25:55;10.20;99.90
14908;DHT22;7545;52.092;7.006;2022-12-29T06:28:21;10.20;99.90
14908;DHT22;7545;52.092;7.006;2022-12-29T06:30:47;10.20;99.90
14908;DHT22;7545;52.092;7.006;2022-12-29T06:33:14;10.20;99.90
14908;DHT22;7545;52.092;7.006;2022-12-29T06:35:42;10.20;99.90
14908;DHT22;7545;52.092;7.006;2022-12-29T06:38:08;10.20;99.90
14908;DHT22;7545;52.092;7.006;2022-12-29T06:40:34;10.20;99.90
14908;DHT22;7545;52.092;7.006;2022-12-29T06:42:59;10.10;99.90
14908;DHT22;7545;52.092;7.006;2022-12-29T06:45:25;10.20;99.90
14908;DHT22;7545;52.092;7.006;2022-12-29T06:47:50;10.10;99.90
14908;DHT22;7545;52.092;7.006;2022-12-29T06:50:16;10.10;99.90
14908;DHT22;7545;52.092;7.006;2022-12-29T06:52:41;10.10;99.90
14908;DHT22;7545;52.092;7.006;2022-12-29T06:55:07;10.10;99.90
14908;DHT22;7545;52.092;7.006;2022-12-29T06:57:33;10.10;99.90
14908;DHT22;7545;52.092;7.006;2022-12-29T06:59:59;10.10;99.90
14908;DHT22;7545;52.092;7.006;2022-12-29T07:02:24;10.10;99.90
14908;DHT22;7545;52.092;7.006;2022-12-29T07:04:51;10.10;99.90
14908;DHT22;7545;52.092;7.006;2022-12-29T07:07:18;10.00;99.90
14908;DHT22;7545;52.092;7.006;2022-12-29T07:09:44;10.00;99.90
14908;DHT22;7545;52.092;7.006;2022-12-29T07:12:09;10.00;99.90
14908;DHT22;7545;52.092;7.006;2022-12-29T07:14:35;10.00;99.90
14908;DHT22;7545;52.092;7.006;2022-12-29T07:17:01;10.00;99.90
14908;DHT22;7545;52.092;7.006;2022-12-29T07:19:28;10.00;99.90
14908;DHT22;7545;52.092;7.006;2022-12-29T07:21:54;9.90;99.90
14908;DHT22;7545;52.092;7.006;2022-12-29T07:24:20;10.00;99.90
14908;DHT22;7545;52.092;7.006;2022-12-29T07:26:45;10.00;99.90
14908;DHT22;7545;52.092;7.006;2022-12-29T07:29:11;10.00;99.90
14908;DHT22;7545;52.092;7.006;2022-12-29T07:31:37;10.00;99.90
14908;DHT22;7545;52.092;7.006;2022-12-29T07:34:03;10.00;99.90
14908;DHT22;7545;52.092;7.006;2022-12-29T07:36:28;9.90;99.90
14908;DHT22;7545;52.092;7.006;2022-12-29T07:38:54;10.00;99.90
14908;DHT22;7545;52.092;7.006;2022-12-29T07:41:20;10.00;99.90
14908;DHT22;7545;52.092;7.006;2022-12-29T07:43:48;10.00;99.90
14908;DHT22;7545;52.092;7.006;2022-12-29T07:46:14;10.00;99.90
14908;DHT22;7545;52.092;7.006;2022-12-29T07:48:40;10.00;99.90
14908;DHT22;7545;52.092;7.006;2022-12-29T07:51:05;10.00;99.90
14908;DHT22;7545;52.092;7.006;2022-12-29T07:53:32;10.10;99.90
14908;DHT22;7545;52.092;7.006;2022-12-29T07:55:57;10.10;99.90
14908;DHT22;7545;52.092;7.006;2022-12-29T07:58:23;10.10;99.90
14908;DHT22;7545;52.092;7.006;2022-12-29T08:00:53;10.10;99.90
14908;DHT22;7545;52.092;7.006;2022-12-29T08:03:19;10.10;99.90
14908;DHT22;7545;52.092;7.006;2022-12-29T08:05:45;10.10;99.90
14908;DHT22;7545;52.092;7.006;2022-12-29T08:08:10;10.10;99.90
14908;DHT22;7545;52.092;7.006;2022-12-29T08:10:36;10.10;99.90
14908;DHT22;7545;52.092;7.006;2022-12-29T08:13:01;10.10;99.90
14908;DHT22;7545;52.092;7.006;2022-12-29T08:15:27;10.10;99.90
14908;DHT22;7545;52.092;7.006;2022-12-29T08:17:53;10.10;99.90
14908;DHT22;7545;52.092;7.006;2022-12-29T08:20:18;10.20;99.90
14908;DHT22;7545;52.092;7.006;2022-12-29T08:22:44;10.20;99.90
14908;DHT22;7545;52.092;7.006;2022-12-29T08:25:09;10.10;99.90
14908;DHT22;7545;52.092;7.006;2022-12-29T08:27:35;10.20;99.90
14908;DHT22;7545;52.092;7.006;2022-12-29T08:30:01;10.10;99.90
14908;DHT22;7545;52.092;7.006;2022-12-29T08:32:27;10.10;99.90
14908;DHT22;7545;52.092;7.006;2022-12-29T08:34:53;10.10;99.90
14908;DHT22;7545;52.092;7.006;2022-12-29T08:37:19;10.20;99.90
14908;DHT22;7545;52.092;7.006;2022-12-29T08:39:45;10.20;99.90
14908;DHT22;7545;52.092;7.006;2022-12-29T08:42:10;10.20;99.90
14908;DHT22;7545;52.092;7.006;2022-12-29T08:44:36;10.20;99.90
14908;DHT22;7545;52.092;7.006;2022-12-29T08:47:02;10.30;99.90
14908;DHT22;7545;52.092;7.006;2022-12-29T08:49:27;10.20;99.90
14908;DHT22;7545;52.092;7.006;2022-12-29T08:51:53;10.30;99.90
14908;DHT22;7545;52.092;7.006;2022-12-29T08:54:18;10.30;99.90
14908;DHT22;7545;52.092;7.006;2022-12-29T08:56:44;10.30;99.90
14908;DHT22;7545;52.092;7.006;2022-12-29T08:59:10;10.40;99.90
14908;DHT22;7545;52.092;7.006;2022-12-29T09:01:36;10.40;99.90
14908;DHT22;7545;52.092;7.006;2022-12-29T09:04:04;10.40;99.90
14908;DHT22;7545;52.092;7.006;2022-12-29T09:06:29;10.40;99.90
14908;DHT22;7545;52.092;7.006;2022-12-29T09:08:55;10.50;99.90
14908;DHT22;7545;52.092;7.006;2022-12-29T09:11:22;10.50;99.90
14908;DHT22;7545;52.092;7.006;2022-12-29T09:13:49;10.50;99.90
14908;DHT22;7545;52.092;7.006;2022-12-29T09:16:16;10.50;99.90
14908;DHT22;7545;52.092;7.006;2022-12-29T09:18:43;10.60;99.90
14908;DHT22;7545;52.092;7.006;2022-12-29T09:21:10;10.60;99.90
14908;DHT22;7545;52.092;7.006;2022-12-29T09:23:36;10.60;99.90
14908;DHT22;7545;52.092;7.006;2022-12-29T09:26:02;10.60;99.90
14908;DHT22;7545;52.092;7.006;2022-12-29T09:28:28;10.60;99.90
14908;DHT22;7545;52.092;7.006;2022-12-29T09:30:55;10.60;99.90
14908;DHT22;7545;52.092;7.006;2022-12-29T09:33:21;10.60;99.90
14908;DHT22;7545;52.092;7.006;2022-12-29T09:35:51;10.60;99.90
14908;DHT22;7545;52.092;7.006;2022-12-29T09:38:17;10.60;99.90
14908;DHT22;7545;52.092;7.006;2022-12-29T09:40:45;10.60;99.90
14908;DHT22;7545;52.092;7.006;2022-12-29T09:46:44;10.60;99.90
14908;DHT22;7545;52.092;7.006;2022-12-29T09:52:14;10.70;99.90
14908;DHT22;7545;52.092;7.006;2022-12-29T10:00:16;10.80;99.90
14908;DHT22;7545;52.092;7.006;2022-12-29T10:03:06;10.80;99.90
14908;DHT22;7545;52.092;7.006;2022-12-29T10:05:41;10.80;99.90
14908;DHT22;7545;52.092;7.006;2022-12-29T10:08:34;10.80;99.90
14908;DHT22;7545;52.092;7.006;2022-12-29T10:16:18;10.80;99.90
14908;DHT22;7545;52.092;7.006;2022-12-29T10:24:02;10.80;99.90
14908;DHT22;7545;52.092;7.006;2022-12-29T10:26:36;10.70;99.90
14908;DHT22;7545;52.092;7.006;2022-12-29T10:29:11;10.80;99.90
14908;DHT22;7545;52.092;7.006;2022-12-29T10:31:56;10.70;99.90
14908;DHT22;7545;52.092;7.006;2022-12-29T10:34:25;10.70;99.90
14908;DHT22;7545;52.092;7.006;2022-12-29T10:36:57;10.70;99.90
14908;DHT22;7545;52.092;7.006;2022-12-29T10:39:32;10.80;99.90
14908;DHT22;7545;52.092;7.006;2022-12-29T10:42:10;10.80;99.90
14908;DHT22;7545;52.092;7.006;2022-12-29T10:44:37;10.90;99.90
14908;DHT22;7545;52.092;7.006;2022-12-29T10:47:07;10.90;99.90
14908;DHT22;7545;52.092;7.006;2022-12-29T10:49:41;10.90;99.90
14908;DHT22;7545;52.092;7.006;2022-12-29T10:52:08;10.90;99.90
14908;DHT22;7545;52.092;7.006;2022-12-29T10:55:03;10.90;99.90
14908;DHT22;7545;52.092;7.006;2022-12-29T10:57:36;10.90;99.90
14908;DHT22;7545;52.092;7.006;2022-12-29T11:00:29;10.90;99.90
14908;DHT22;7545;52.092;7.006;2022-12-29T11:06:06;10.90;99.90
14908;DHT22;7545;52.092;7.006;2022-12-29T11:08:37;10.90;99.90
14908;DHT22;7545;52.092;7.006;2022-12-29T11:11:09;10.90;99.90
14908;DHT22;7545;52.092;7.006;2022-12-29T11:13:49;10.90;99.90
14908;DHT22;7545;52.092;7.006;2022-12-29T11:16:27;10.80;99.90
14908;DHT22;7545;52.092;7.006;2022-12-29T11:18:55;10.90;99.90
14908;DHT22;7545;52.092;7.006;2022-12-29T11:21:35;10.80;99.90
14908;DHT22;7545;52.092;7.006;2022-12-29T11:24:19;10.80;99.90
14908;DHT22;7545;52.092;7.006;2022-12-29T11:26:46;10.80;99.90
14908;DHT22;7545;52.092;7.006;2022-12-29T11:31:51;10.80;99.90
14908;DHT22;7545;52.092;7.006;2022-12-29T11:34:20;10.80;99.90
14908;DHT22;7545;52.092;7.006;2022-12-29T11:36:47;10.80;99.90
14908;DHT22;7545;52.092;7.006;2022-12-29T11:39:55;10.80;99.90
14908;DHT22;7545;52.092;7.006;2022-12-29T11:42:48;10.80;99.90
14908;DHT22;7545;52.092;7.006;2022-12-29T11:45:24;10.80;99.90
14908;DHT22;7545;52.092;7.006;2022-12-29T11:47:59;10.70;99.90
14908;DHT22;7545;52.092;7.006;2022-12-29T11:50:28;10.70;99.90
14908;DHT22;7545;52.092;7.006;2022-12-29T11:53:03;10.70;99.90
14908;DHT22;7545;52.092;7.006;2022-12-29T11:55:31;10.60;99.90
14908;DHT22;7545;52.092;7.006;2022-12-29T11:58:00;10.60;99.90
14908;DHT22;7545;52.092;7.006;2022-12-29T12:00:28;10.50;99.90
14908;DHT22;7545;52.092;7.006;2022-12-29T12:03:18;10.50;99.90
14908;DHT22;7545;52.092;7.006;2022-12-29T12:05:49;10.50;99.90
14908;DHT22;7545;52.092;7.006;2022-12-29T12:11:26;10.60;99.90
14908;DHT22;7545;52.092;7.006;2022-12-29T12:16:40;10.60;99.90
14908;DHT22;7545;52.092;7.006;2022-12-29T12:19:20;10.60;99.90
14908;DHT22;7545;52.092;7.006;2022-12-29T12:21:56;10.70;99.90
14908;DHT22;7545;52.092;7.006;2022-12-29T12:24:41;10.70;99.90
14908;DHT22;7545;52.092;7.006;2022-12-29T12:27:19;10.70;99.90
14908;DHT22;7545;52.092;7.006;2022-12-29T12:32:29;10.80;99.90
14908;DHT22;7545;52.092;7.006;2022-12-29T12:35:03;10.80;99.90
14908;DHT22;7545;52.092;7.006;2022-12-29T12:43:06;10.80;99.90
14908;DHT22;7545;52.092;7.006;2022-12-29T12:49:14;10.80;99.90
14908;DHT22;7545;52.092;7.006;2022-12-29T13:00:14;10.80;99.90
14908;DHT22;7545;52.092;7.006;2022-12-29T13:05:38;10.80;99.90
14908;DHT22;7545;52.092;7.006;2022-12-29T13:08:39;10.80;99.90
14908;DHT22;7545;52.092;7.006;2022-12-29T13:14:09;10.80;99.90
14908;DHT22;7545;52.092;7.006;2022-12-29T13:30:15;10.80;99.90
14908;DHT22;7545;52.092;7.006;2022-12-29T13:33:12;10.80;99.90
14908;DHT22;7545;52.092;7.006;2022-12-29T13:38:28;10.80;99.90
14908;DHT22;7545;52.092;7.006;2022-12-29T13:41:34;10.80;99.90
14908;DHT22;7545;52.092;7.006;2022-12-29T13:43:51;10.80;99.90
14908;DHT22;7545;52.092;7.006;2022-12-29T13:46:23;10.90;99.90
14908;DHT22;7545;52.092;7.006;2022-12-29T13:48:58;10.90;99.90
14908;DHT22;7545;52.092;7.006;2022-12-29T13:51:25;10.90;99.90
14908;DHT22;7545;52.092;7.006;2022-12-29T13:53:57;10.90;99.90
14908;DHT22;7545;52.092;7.006;2022-12-29T14:01:58;10.90;99.90
14908;DHT22;7545;52.092;7.006;2022-12-29T14:04:27;10.90;99.90
14908;DHT22;7545;52.092;7.006;2022-12-29T14:07:03;10.80;99.90
14908;DHT22;7545;52.092;7.006;2022-12-29T14:12:31;10.80;99.90
14908;DHT22;7545;52.092;7.006;2022-12-29T14:15:06;10.80;99.90
14908;DHT22;7545;52.092;7.006;2022-12-29T14:20:22;10.80;99.90
14908;DHT22;7545;52.092;7.006;2022-12-29T14:22:58;10.80;99.90
14908;DHT22;7545;52.092;7.006;2022-12-29T14:25:53;10.80;99.90
14908;DHT22;7545;52.092;7.006;2022-12-29T14:28:40;10.80;99.90
14908;DHT22;7545;52.092;7.006;2022-12-29T14:36:36;10.70;99.90
14908;DHT22;7545;52.092;7.006;2022-12-29T14:39:04;10.70;99.90
14908;DHT22;7545;52.092;7.006;2022-12-29T14:41:35;10.70;99.90
14908;DHT22;7545;52.092;7.006;2022-12-29T14:44:15;10.70;99.90
14908;DHT22;7545;52.092;7.006;2022-12-29T14:47:08;10.70;99.90
14908;DHT22;7545;52.092;7.006;2022-12-29T14:49:42;10.70;99.90
14908;DHT22;7545;52.092;7.006;2022-12-29T14:52:22;10.70;99.90
14908;DHT22;7545;52.092;7.006;2022-12-29T14:54:59;10.70;99.90
14908;DHT22;7545;52.092;7.006;2022-12-29T14:57:49;10.70;99.90
14908;DHT22;7545;52.092;7.006;2022-12-29T15:00:23;10.70;99.90
14908;DHT22;7545;52.092;7.006;2022-12-29T15:03:02;10.70;99.90
14908;DHT22;7545;52.092;7.006;2022-12-29T15:05:55;10.70;99.90
14908;DHT22;7545;52.092;7.006;2022-12-29T15:08:28;10.60;99.90
14908;DHT22;7545;52.092;7.006;2022-12-29T15:11:02;10.60;99.90
14908;DHT22;7545;52.092;7.006;2022-12-29T15:13:38;10.60;99.90
14908;DHT22;7545;52.092;7.006;2022-12-29T15:16:20;10.60;99.90
14908;DHT22;7545;52.092;7.006;2022-12-29T15:18:46;10.50;99.90
14908;DHT22;7545;52.092;7.006;2022-12-29T15:21:13;10.50;99.90
14908;DHT22;7545;52.092;7.006;2022-12-29T15:23:43;10.40;99.90
14908;DHT22;7545;52.092;7.006;2022-12-29T15:26:09;10.40;99.90
14908;DHT22;7545;52.092;7.006;2022-12-29T15:28:44;10.40;99.90
14908;DHT22;7545;52.092;7.006;2022-12-29T15:31:18;10.40;99.90
14908;DHT22;7545;52.092;7.006;2022-12-29T15:33:49;10.30;99.90
14908;DHT22;7545;52.092;7.006;2022-12-29T15:36:20;10.30;99.90
14908;DHT22;7545;52.092;7.006;2022-12-29T15:38:47;10.30;99.90
14908;DHT22;7545;52.092;7.006;2022-12-29T15:41:36;10.30;99.90
14908;DHT22;7545;52.092;7.006;2022-12-29T15:44:36;10.20;99.90
14908;DHT22;7545;52.092;7.006;2022-12-29T15:47:11;10.20;99.90
14908;DHT22;7545;52.092;7.006;2022-12-29T15:49:38;10.20;99.90
14908;DHT22;7545;52.092;7.006;2022-12-29T15:52:08;10.20;99.90
14908;DHT22;7545;52.092;7.006;2022-12-29T15:54:34;10.10;99.90
14908;DHT22;7545;52.092;7.006;2022-12-29T15:57:01;10.10;99.90
14908;DHT22;7545;52.092;7.006;2022-12-29T15:59:33;10.00;99.90
14908;DHT22;7545;52.092;7.006;2022-12-29T16:02:00;10.00;99.90
14908;DHT22;7545;52.092;7.006;2022-12-29T16:04:29;10.00;99.90
14908;DHT22;7545;52.092;7.006;2022-12-29T16:07:03;10.00;99.90
14908;DHT22;7545;52.092;7.006;2022-12-29T16:09:34;10.00;99.90
14908;DHT22;7545;52.092;7.006;2022-12-29T16:12:04;10.00;99.90
14908;DHT22;7545;52.092;7.006;2022-12-29T16:16:58;10.00;99.90
14908;DHT22;7545;52.092;7.006;2022-12-29T16:19:35;10.00;99.90
14908;DHT22;7545;52.092;7.006;2022-12-29T16:22:04;10.00;99.90
14908;DHT22;7545;52.092;7.006;2022-12-29T16:24:37;10.00;99.90
14908;DHT22;7545;52.092;7.006;2022-12-29T16:27:20;10.00;99.90
14908;DHT22;7545;52.092;7.006;2022-12-29T16:29:51;10.00;99.90
14908;DHT22;7545;52.092;7.006;2022-12-29T16:32:31;10.00;99.90
14908;DHT22;7545;52.092;7.006;2022-12-29T16:35:23;10.00;99.90
14908;DHT22;7545;52.092;7.006;2022-12-29T16:40:31;10.00;99.90
14908;DHT22;7545;52.092;7.006;2022-12-29T16:43:02;10.00;99.90
14908;DHT22;7545;52.092;7.006;2022-12-29T16:51:12;10.00;99.90
14908;DHT22;7545;52.092;7.006;2022-12-29T16:53:40;10.00;99.90
14908;DHT22;7545;52.092;7.006;2022-12-29T16:56:28;10.00;99.90
14908;DHT22;7545;52.092;7.006;2022-12-29T17:01:27;9.90;99.90
14908;DHT22;7545;52.092;7.006;2022-12-29T17:03:57;9.90;99.90
14908;DHT22;7545;52.092;7.006;2022-12-29T17:06:24;9.90;99.90
14908;DHT22;7545;52.092;7.006;2022-12-29T17:08:50;9.90;99.90
14908;DHT22;7545;52.092;7.006;2022-12-29T17:11:26;9.90;99.90
14908;DHT22;7545;52.092;7.006;2022-12-29T17:16:46;9.90;99.90
14908;DHT22;7545;52.092;7.006;2022-12-29T17:19:17;9.90;99.90
14908;DHT22;7545;52.092;7.006;2022-12-29T17:21:43;9.90;99.90
14908;DHT22;7545;52.092;7.006;2022-12-29T17:24:19;9.90;99.90
14908;DHT22;7545;52.092;7.006;2022-12-29T17:26:56;9.80;99.90
14908;DHT22;7545;52.092;7.006;2022-12-29T17:31:57;9.80;99.90
14908;DHT22;7545;52.092;7.006;2022-12-29T17:34:23;9.80;99.90
14908;DHT22;7545;52.092;7.006;2022-12-29T17:36:49;9.80;99.90
14908;DHT22;7545;52.092;7.006;2022-12-29T17:39:14;9.80;99.90
14908;DHT22;7545;52.092;7.006;2022-12-29T17:41:40;9.80;99.90
14908;DHT22;7545;52.092;7.006;2022-12-29T17:44:06;9.80;99.90
14908;DHT22;7545;52.092;7.006;2022-12-29T17:46:32;9.80;99.90
14908;DHT22;7545;52.092;7.006;2022-12-29T17:48:58;9.80;99.90
14908;DHT22;7545;52.092;7.006;2022-12-29T17:51:24;9.80;99.90
14908;DHT22;7545;52.092;7.006;2022-12-29T17:53:50;9.80;99.90
14908;DHT22;7545;52.092;7.006;2022-12-29T17:56:17;9.80;99.90
14908;DHT22;7545;52.092;7.006;2022-12-29T17:58:42;9.70;99.90
14908;DHT22;7545;52.092;7.006;2022-12-29T18:01:08;9.70;99.90
14908;DHT22;7545;52.092;7.006;2022-12-29T18:03:36;9.70;99.90
14908;DHT22;7545;52.092;7.006;2022-12-29T18:06:03;9.70;99.90
14908;DHT22;7545;52.092;7.006;2022-12-29T18:08:31;9.70;99.90
14908;DHT22;7545;52.092;7.006;2022-12-29T18:10:57;9.70;99.90
14908;DHT22;7545;52.092;7.006;2022-12-29T18:13:26;9.70;99.90
14908;DHT22;7545;52.092;7.006;2022-12-29T18:15:52;9.70;99.90
14908;DHT22;7545;52.092;7.006;2022-12-29T18:18:20;9.60;99.90
14908;DHT22;7545;52.092;7.006;2022-12-29T18:20:47;9.60;99.90
14908;DHT22;7545;52.092;7.006;2022-12-29T18:25:55;9.60;99.90
14908;DHT22;7545;52.092;7.006;2022-12-29T18:28:23;9.50;99.90
14908;DHT22;7545;52.092;7.006;2022-12-29T18:30:49;9.40;99.90
14908;DHT22;7545;52.092;7.006;2022-12-29T18:33:17;9.40;99.90
14908;DHT22;7545;52.092;7.006;2022-12-29T18:35:58;9.40;99.90
14908;DHT22;7545;52.092;7.006;2022-12-29T18:38:25;9.40;99.90
14908;DHT22;7545;52.092;7.006;2022-12-29T18:40:51;9.40;99.90
14908;DHT22;7545;52.092;7.006;2022-12-29T18:43:17;9.30;99.90